sensor_id;sensor_type;location;lat;lon;timestamp;P1;durP1;ratioP1;P2;durP2;ratioP2
72439;SDS011;60446;50.752;4.352;2023-02-28T00:04:07;6.07;;;2.28;;
72439;SDS011;60446;50.752;4.352;2023-02-28T00:07:02;6.40;;;2.47;;
72439;SDS011;60446;50.752;4.352;2023-02-28T00:10:16;7.20;;;1.85;;
72439;SDS011;60446;50.752;4.352;2023-02-28T00:13:29;4.78;;;1.67;;
72439;SDS011;60446;50.752;4.352;2023-02-28T00:16:31;7.97;;;2.47;;
72439;SDS011;60446;50.752;4.352;2023-02-28T00:20:02;8.50;;;3.22;;
72439;SDS011;60446;50.752;4.352;2023-02-28T00:23:09;6.18;;;1.98;;
72439;SDS011;60446;50.752;4.352;2023-02-28T00:26:00;5.20;;;2.05;;
72439;SDS011;60446;50.752;4.352;2023-02-28T00:28:41;7.88;;;2.75;;
72439;SDS011;60446;50.752;4.352;2023-02-28T00:31:38;7.03;;;2.30;;
72439;SDS011;60446;50.752;4.352;2023-02-28T00:34:51;5.68;;;2.28;;
72439;SDS011;60446;50.752;4.352;2023-02-28T00:37:57;5.03;;;1.35;;
72439;SDS011;60446;50.752;4.352;2023-02-28T00:41:46;5.65;;;1.45;;
72439;SDS011;60446;50.752;4.352;2023-02-28T00:44:50;4.82;;;1.67;;
72439;SDS011;60446;50.752;4.352;2023-02-28T00:47:50;7.20;;;1.70;;
72439;SDS011;60446;50.752;4.352;2023-02-28T00:50:35;6.80;;;2.10;;
72439;SDS011;60446;50.752;4.352;2023-02-28T00:53:09;7.13;;;2.40;;
72439;SDS011;60446;50.752;4.352;2023-02-28T00:56:14;6.30;;;1.83;;
72439;SDS011;60446;50.752;4.352;2023-02-28T00:59:08;8.07;;;2.25;;
72439;SDS011;60446;50.752;4.352;2023-02-28T01:02:05;5.03;;;2.27;;
72439;SDS011;60446;50.752;4.352;2023-02-28T01:05:20;6.93;;;2.97;;
72439;SDS011;60446;50.752;4.352;2023-02-28T01:08:25;5.10;;;1.90;;
72439;SDS011;60446;50.752;4.352;2023-02-28T01:11:09;7.25;;;2.80;;
72439;SDS011;60446;50.752;4.352;2023-02-28T01:14:33;5.63;;;1.63;;
72439;SDS011;60446;50.752;4.352;2023-02-28T01:17:56;5.80;;;1.67;;
72439;SDS011;60446;50.752;4.352;2023-02-28T01:21:15;6.30;;;2.85;;
72439;SDS011;60446;50.752;4.352;2023-02-28T01:23:58;7.75;;;2.28;;
72439;SDS011;60446;50.752;4.352;2023-02-28T01:26:50;9.70;;;2.28;;
72439;SDS011;60446;50.752;4.352;2023-02-28T01:29:59;5.47;;;2.10;;
72439;SDS011;60446;50.752;4.352;2023-02-28T01:32:36;5.87;;;1.93;;
72439;SDS011;60446;50.752;4.352;2023-02-28T01:35:14;8.93;;;2.92;;
72439;SDS011;60446;50.752;4.352;2023-02-28T01:37:49;6.80;;;1.95;;
72439;SDS011;60446;50.752;4.352;2023-02-28T01:41:18;6.30;;;1.85;;
72439;SDS011;60446;50.752;4.352;2023-02-28T01:48:00;4.70;;;1.67;;
72439;SDS011;60446;50.752;4.352;2023-02-28T01:50:50;8.23;;;2.60;;
72439;SDS011;60446;50.752;4.352;2023-02-28T01:54:01;7.32;;;2.40;;
72439;SDS011;60446;50.752;4.352;2023-02-28T01:57:01;6.88;;;2.42;;
72439;SDS011;60446;50.752;4.352;2023-02-28T02:00:10;5.22;;;1.77;;
72439;SDS011;60446;50.752;4.352;2023-02-28T02:03:05;5.77;;;2.23;;
72439;SDS011;60446;50.752;4.352;2023-02-28T02:06:06;6.47;;;1.73;;
72439;SDS011;60446;50.752;4.352;2023-02-28T02:08:36;4.28;;;1.75;;
72439;SDS011;60446;50.752;4.352;2023-02-28T02:11:31;5.68;;;2.17;;
72439;SDS011;60446;50.752;4.352;2023-02-28T02:17:34;5.87;;;2.00;;
72439;SDS011;60446;50.752;4.352;2023-02-28T02:30:46;3.97;;;1.45;;
72439;SDS011;60446;50.752;4.352;2023-02-28T02:34:26;4.33;;;1.67;;
72439;SDS011;60446;50.752;4.352;2023-02-28T02:40:33;6.35;;;2.13;;
72439;SDS011;60446;50.752;4.352;2023-02-28T02:43:52;6.22;;;1.80;;
72439;SDS011;60446;50.752;4.352;2023-02-28T02:47:31;5.47;;;2.55;;
72439;SDS011;60446;50.752;4.352;2023-02-28T02:50:13;10.50;;;2.67;;
72439;SDS011;60446;50.752;4.352;2023-02-28T02:54:00;9.95;;;2.13;;
72439;SDS011;60446;50.752;4.352;2023-02-28T02:57:29;7.90;;;1.98;;
72439;SDS011;60446;50.752;4.352;2023-02-28T03:00:07;10.20;;;1.95;;
72439;SDS011;60446;50.752;4.352;2023-02-28T03:03:03;5.65;;;2.05;;
72439;SDS011;60446;50.752;4.352;2023-02-28T03:06:06;5.17;;;1.73;;
72439;SDS011;60446;50.752;4.352;2023-02-28T03:08:56;8.80;;;2.88;;
72439;SDS011;60446;50.752;4.352;2023-02-28T03:11:51;11.95;;;2.42;;
72439;SDS011;60446;50.752;4.352;2023-02-28T03:25:05;4.07;;;1.75;;
72439;SDS011;60446;50.752;4.352;2023-02-28T03:34:13;7.25;;;2.58;;
72439;SDS011;60446;50.752;4.352;2023-02-28T03:36:53;8.07;;;2.50;;
72439;SDS011;60446;50.752;4.352;2023-02-28T03:39:43;8.10;;;2.20;;
72439;SDS011;60446;50.752;4.352;2023-02-28T03:43:04;5.88;;;2.10;;
72439;SDS011;60446;50.752;4.352;2023-02-28T03:45:46;7.18;;;2.78;;
72439;SDS011;60446;50.752;4.352;2023-02-28T03:49:11;6.05;;;2.00;;
72439;SDS011;60446;50.752;4.352;2023-02-28T03:51:39;7.10;;;2.13;;
72439;SDS011;60446;50.752;4.352;2023-02-28T03:54:23;6.25;;;2.22;;
72439;SDS011;60446;50.752;4.352;2023-02-28T04:00:55;7.22;;;1.73;;
72439;SDS011;60446;50.752;4.352;2023-02-28T04:03:58;3.58;;;1.42;;
72439;SDS011;60446;50.752;4.352;2023-02-28T04:06:37;8.83;;;2.77;;
72439;SDS011;60446;50.752;4.352;2023-02-28T04:09:32;8.48;;;3.08;;
72439;SDS011;60446;50.752;4.352;2023-02-28T04:12:45;6.55;;;2.30;;
72439;SDS011;60446;50.752;4.352;2023-02-28T04:15:13;4.95;;;1.60;;
72439;SDS011;60446;50.752;4.352;2023-02-28T04:17:44;5.78;;;2.72;;
72439;SDS011;60446;50.752;4.352;2023-02-28T04:20:19;9.40;;;2.90;;
72439;SDS011;60446;50.752;4.352;2023-02-28T04:23:00;7.35;;;2.78;;
72439;SDS011;60446;50.752;4.352;2023-02-28T04:26:06;6.93;;;2.60;;
72439;SDS011;60446;50.752;4.352;2023-02-28T04:28:58;10.55;;;2.80;;
72439;SDS011;60446;50.752;4.352;2023-02-28T04:31:50;9.48;;;2.60;;
72439;SDS011;60446;50.752;4.352;2023-02-28T04:34:31;6.60;;;2.20;;
72439;SDS011;60446;50.752;4.352;2023-02-28T04:37:12;9.70;;;2.60;;
72439;SDS011;60446;50.752;4.352;2023-02-28T04:39:54;9.85;;;3.83;;
72439;SDS011;60446;50.752;4.352;2023-02-28T04:42:51;7.75;;;2.90;;
72439;SDS011;60446;50.752;4.352;2023-02-28T04:45:32;8.88;;;2.40;;
72439;SDS011;60446;50.752;4.352;2023-02-28T04:48:10;8.90;;;2.80;;
72439;SDS011;60446;50.752;4.352;2023-02-28T04:51:09;7.50;;;3.05;;
72439;SDS011;60446;50.752;4.352;2023-02-28T04:54:07;9.75;;;3.17;;
72439;SDS011;60446;50.752;4.352;2023-02-28T04:56:53;9.57;;;3.45;;
72439;SDS011;60446;50.752;4.352;2023-02-28T04:59:40;10.23;;;4.03;;
72439;SDS011;60446;50.752;4.352;2023-02-28T05:02:19;12.47;;;2.67;;
72439;SDS011;60446;50.752;4.352;2023-02-28T05:05:03;5.97;;;2.65;;
72439;SDS011;60446;50.752;4.352;2023-02-28T05:08:20;9.40;;;3.42;;
72439;SDS011;60446;50.752;4.352;2023-02-28T05:14:34;12.77;;;3.17;;
72439;SDS011;60446;50.752;4.352;2023-02-28T05:17:30;8.63;;;3.70;;
72439;SDS011;60446;50.752;4.352;2023-02-28T05:20:07;9.95;;;2.78;;
72439;SDS011;60446;50.752;4.352;2023-02-28T05:23:13;6.32;;;3.17;;
72439;SDS011;60446;50.752;4.352;2023-02-28T05:26:23;9.77;;;3.38;;
72439;SDS011;60446;50.752;4.352;2023-02-28T05:29:48;9.65;;;2.83;;
72439;SDS011;60446;50.752;4.352;2023-02-28T05:33:12;5.50;;;2.17;;
72439;SDS011;60446;50.752;4.352;2023-02-28T05:36:18;9.98;;;2.47;;
72439;SDS011;60446;50.752;4.352;2023-02-28T05:42:21;6.82;;;2.60;;
72439;SDS011;60446;50.752;4.352;2023-02-28T05:45:15;11.80;;;3.17;;
72439;SDS011;60446;50.752;4.352;2023-02-28T05:48:14;9.60;;;2.93;;
72439;SDS011;60446;50.752;4.352;2023-02-28T05:50:54;9.15;;;3.00;;
72439;SDS011;60446;50.752;4.352;2023-02-28T05:54:37;11.10;;;2.85;;
72439;SDS011;60446;50.752;4.352;2023-02-28T05:57:39;9.18;;;3.08;;
72439;SDS011;60446;50.752;4.352;2023-02-28T06:03:33;9.50;;;3.10;;
72439;SDS011;60446;50.752;4.352;2023-02-28T06:06:48;9.88;;;3.65;;
72439;SDS011;60446;50.752;4.352;2023-02-28T06:09:28;9.65;;;2.80;;
72439;SDS011;60446;50.752;4.352;2023-02-28T06:11:59;8.52;;;3.17;;
72439;SDS011;60446;50.752;4.352;2023-02-28T06:14:47;18.35;;;3.85;;
72439;SDS011;60446;50.752;4.352;2023-02-28T06:17:35;8.97;;;3.57;;
72439;SDS011;60446;50.752;4.352;2023-02-28T06:20:22;7.65;;;3.03;;
72439;SDS011;60446;50.752;4.352;2023-02-28T06:23:19;10.85;;;3.90;;
72439;SDS011;60446;50.752;4.352;2023-02-28T06:26:14;10.52;;;3.50;;
72439;SDS011;60446;50.752;4.352;2023-02-28T06:29:19;10.35;;;4.07;;
72439;SDS011;60446;50.752;4.352;2023-02-28T06:32:38;11.70;;;3.97;;
72439;SDS011;60446;50.752;4.352;2023-02-28T06:35:22;13.85;;;3.92;;
72439;SDS011;60446;50.752;4.352;2023-02-28T06:38:00;10.48;;;3.67;;
72439;SDS011;60446;50.752;4.352;2023-02-28T06:40:28;12.15;;;3.33;;
72439;SDS011;60446;50.752;4.352;2023-02-28T06:43:02;10.48;;;4.78;;
72439;SDS011;60446;50.752;4.352;2023-02-28T06:45:50;9.57;;;3.60;;
72439;SDS011;60446;50.752;4.352;2023-02-28T06:48:26;7.13;;;2.88;;
72439;SDS011;60446;50.752;4.352;2023-02-28T06:53:58;9.85;;;3.40;;
72439;SDS011;60446;50.752;4.352;2023-02-28T06:56:27;10.98;;;3.92;;
72439;SDS011;60446;50.752;4.352;2023-02-28T06:58:57;9.47;;;4.00;;
72439;SDS011;60446;50.752;4.352;2023-02-28T07:01:24;9.55;;;3.80;;
72439;SDS011;60446;50.752;4.352;2023-02-28T07:03:51;11.98;;;4.80;;
72439;SDS011;60446;50.752;4.352;2023-02-28T07:06:19;12.52;;;3.75;;
72439;SDS011;60446;50.752;4.352;2023-02-28T07:08:50;10.32;;;3.97;;
72439;SDS011;60446;50.752;4.352;2023-02-28T07:11:21;7.00;;;2.47;;
72439;SDS011;60446;50.752;4.352;2023-02-28T07:13:55;12.02;;;4.22;;
72439;SDS011;60446;50.752;4.352;2023-02-28T07:16:24;11.20;;;4.25;;
72439;SDS011;60446;50.752;4.352;2023-02-28T07:18:52;11.45;;;3.97;;
72439;SDS011;60446;50.752;4.352;2023-02-28T07:21:20;9.45;;;4.00;;
72439;SDS011;60446;50.752;4.352;2023-02-28T07:23:47;8.23;;;3.30;;
72439;SDS011;60446;50.752;4.352;2023-02-28T07:26:18;10.27;;;3.65;;
72439;SDS011;60446;50.752;4.352;2023-02-28T07:28:47;10.50;;;4.80;;
72439;SDS011;60446;50.752;4.352;2023-02-28T07:31:16;11.20;;;4.22;;
72439;SDS011;60446;50.752;4.352;2023-02-28T07:33:46;12.88;;;4.05;;
72439;SDS011;60446;50.752;4.352;2023-02-28T07:36:19;8.97;;;3.50;;
72439;SDS011;60446;50.752;4.352;2023-02-28T07:38:49;11.23;;;3.75;;
72439;SDS011;60446;50.752;4.352;2023-02-28T07:41:22;11.55;;;3.85;;
72439;SDS011;60446;50.752;4.352;2023-02-28T07:43:53;8.07;;;2.75;;
72439;SDS011;60446;50.752;4.352;2023-02-28T07:46:24;11.85;;;3.90;;
72439;SDS011;60446;50.752;4.352;2023-02-28T07:49:05;8.87;;;3.73;;
72439;SDS011;60446;50.752;4.352;2023-02-28T07:51:38;7.30;;;2.72;;
72439;SDS011;60446;50.752;4.352;2023-02-28T07:54:08;8.63;;;3.13;;
72439;SDS011;60446;50.752;4.352;2023-02-28T07:56:46;8.70;;;3.13;;
72439;SDS011;60446;50.752;4.352;2023-02-28T07:59:35;9.20;;;2.78;;
72439;SDS011;60446;50.752;4.352;2023-02-28T08:02:03;7.13;;;2.67;;
72439;SDS011;60446;50.752;4.352;2023-02-28T08:05:10;7.72;;;2.58;;
72439;SDS011;60446;50.752;4.352;2023-02-28T08:07:49;6.95;;;2.28;;
72439;SDS011;60446;50.752;4.352;2023-02-28T08:10:30;7.32;;;3.13;;
72439;SDS011;60446;50.752;4.352;2023-02-28T08:13:00;5.80;;;1.95;;
72439;SDS011;60446;50.752;4.352;2023-02-28T08:15:54;7.23;;;2.27;;
72439;SDS011;60446;50.752;4.352;2023-02-28T08:18:35;7.22;;;2.33;;
72439;SDS011;60446;50.752;4.352;2023-02-28T08:21:07;8.23;;;2.40;;
72439;SDS011;60446;50.752;4.352;2023-02-28T08:23:55;6.45;;;2.03;;
72439;SDS011;60446;50.752;4.352;2023-02-28T08:27:13;4.35;;;1.38;;
72439;SDS011;60446;50.752;4.352;2023-02-28T08:29:56;7.57;;;2.23;;
72439;SDS011;60446;50.752;4.352;2023-02-28T08:32:28;13.23;;;3.15;;
72439;SDS011;60446;50.752;4.352;2023-02-28T08:35:23;8.20;;;2.45;;
72439;SDS011;60446;50.752;4.352;2023-02-28T08:38:11;8.10;;;1.98;;
72439;SDS011;60446;50.752;4.352;2023-02-28T08:41:34;4.07;;;1.58;;
72439;SDS011;60446;50.752;4.352;2023-02-28T08:44:35;5.03;;;1.37;;
72439;SDS011;60446;50.752;4.352;2023-02-28T08:47:50;5.60;;;2.00;;
72439;SDS011;60446;50.752;4.352;2023-02-28T08:50:59;6.50;;;1.40;;
72439;SDS011;60446;50.752;4.352;2023-02-28T08:53:53;4.18;;;1.20;;
72439;SDS011;60446;50.752;4.352;2023-02-28T08:57:20;6.18;;;1.33;;
72439;SDS011;60446;50.752;4.352;2023-02-28T09:00:20;6.73;;;2.33;;
72439;SDS011;60446;50.752;4.352;2023-02-28T09:03:13;5.40;;;1.67;;
72439;SDS011;60446;50.752;4.352;2023-02-28T09:06:13;6.97;;;2.33;;
72439;SDS011;60446;50.752;4.352;2023-02-28T09:08:51;5.05;;;1.52;;
72439;SDS011;60446;50.752;4.352;2023-02-28T09:11:29;8.80;;;2.33;;
72439;SDS011;60446;50.752;4.352;2023-02-28T09:14:15;4.73;;;1.13;;
72439;SDS011;60446;50.752;4.352;2023-02-28T09:17:18;5.28;;;1.60;;
72439;SDS011;60446;50.752;4.352;2023-02-28T09:20:28;4.50;;;1.75;;
72439;SDS011;60446;50.752;4.352;2023-02-28T09:23:10;6.10;;;1.40;;
72439;SDS011;60446;50.752;4.352;2023-02-28T09:26:06;4.82;;;1.40;;
72439;SDS011;60446;50.752;4.352;2023-02-28T09:28:49;7.90;;;1.30;;
72439;SDS011;60446;50.752;4.352;2023-02-28T09:31:29;8.80;;;2.17;;
72439;SDS011;60446;50.752;4.352;2023-02-28T09:34:03;5.70;;;1.75;;
72439;SDS011;60446;50.752;4.352;2023-02-28T09:36:48;5.47;;;1.13;;
72439;SDS011;60446;50.752;4.352;2023-02-28T09:39:24;7.88;;;1.50;;
72439;SDS011;60446;50.752;4.352;2023-02-28T09:42:02;6.73;;;1.80;;
72439;SDS011;60446;50.752;4.352;2023-02-28T09:44:51;3.47;;;1.10;;
72439;SDS011;60446;50.752;4.352;2023-02-28T09:48:25;4.90;;;1.75;;
72439;SDS011;60446;50.752;4.352;2023-02-28T09:51:33;5.20;;;1.30;;
72439;SDS011;60446;50.752;4.352;2023-02-28T09:54:26;4.72;;;1.45;;
72439;SDS011;60446;50.752;4.352;2023-02-28T09:57:14;7.10;;;1.70;;
72439;SDS011;60446;50.752;4.352;2023-02-28T10:00:29;2.70;;;0.63;;
72439;SDS011;60446;50.752;4.352;2023-02-28T10:06:57;7.35;;;1.15;;
72439;SDS011;60446;50.752;4.352;2023-02-28T10:10:15;3.35;;;1.17;;
72439;SDS011;60446;50.752;4.352;2023-02-28T10:17:16;3.75;;;1.00;;
72439;SDS011;60446;50.752;4.352;2023-02-28T10:20:51;4.88;;;1.25;;
72439;SDS011;60446;50.752;4.352;2023-02-28T10:23:46;2.78;;;1.30;;
72439;SDS011;60446;50.752;4.352;2023-02-28T10:26:38;3.08;;;0.90;;
72439;SDS011;60446;50.752;4.352;2023-02-28T10:30:09;3.87;;;1.10;;
72439;SDS011;60446;50.752;4.352;2023-02-28T10:33:32;2.17;;;0.80;;
72439;SDS011;60446;50.752;4.352;2023-02-28T10:36:35;4.50;;;1.05;;
72439;SDS011;60446;50.752;4.352;2023-02-28T10:39:54;2.60;;;0.77;;
72439;SDS011;60446;50.752;4.352;2023-02-28T10:43:00;7.05;;;1.05;;
72439;SDS011;60446;50.752;4.352;2023-02-28T10:46:33;4.40;;;0.60;;
72439;SDS011;60446;50.752;4.352;2023-02-28T10:49:07;2.40;;;0.80;;
72439;SDS011;60446;50.752;4.352;2023-02-28T10:52:16;6.25;;;1.42;;
72439;SDS011;60446;50.752;4.352;2023-02-28T10:55:30;4.57;;;1.10;;
72439;SDS011;60446;50.752;4.352;2023-02-28T11:02:08;5.37;;;0.87;;
72439;SDS011;60446;50.752;4.352;2023-02-28T11:05:40;3.15;;;0.65;;
72439;SDS011;60446;50.752;4.352;2023-02-28T11:08:41;4.32;;;0.95;;
72439;SDS011;60446;50.752;4.352;2023-02-28T11:12:30;2.90;;;1.10;;
72439;SDS011;60446;50.752;4.352;2023-02-28T11:15:22;2.15;;;0.57;;
72439;SDS011;60446;50.752;4.352;2023-02-28T11:18:29;4.37;;;0.70;;
72439;SDS011;60446;50.752;4.352;2023-02-28T11:21:57;7.40;;;1.25;;
72439;SDS011;60446;50.752;4.352;2023-02-28T11:28:51;4.75;;;1.25;;
72439;SDS011;60446;50.752;4.352;2023-02-28T11:37:46;2.78;;;0.52;;
72439;SDS011;60446;50.752;4.352;2023-02-28T11:40:53;6.13;;;1.15;;
72439;SDS011;60446;50.752;4.352;2023-02-28T11:46:40;5.35;;;1.10;;
72439;SDS011;60446;50.752;4.352;2023-02-28T12:06:25;4.50;;;1.17;;
72439;SDS011;60446;50.752;4.352;2023-02-28T12:09:51;5.75;;;1.30;;
72439;SDS011;60446;50.752;4.352;2023-02-28T12:12:59;4.82;;;1.20;;
72439;SDS011;60446;50.752;4.352;2023-02-28T12:19:00;5.97;;;1.27;;
72439;SDS011;60446;50.752;4.352;2023-02-28T12:28:28;4.63;;;0.85;;
72439;SDS011;60446;50.752;4.352;2023-02-28T12:31:02;3.67;;;0.90;;
72439;SDS011;60446;50.752;4.352;2023-02-28T12:33:43;3.97;;;1.00;;
72439;SDS011;60446;50.752;4.352;2023-02-28T12:36:16;4.00;;;1.00;;
72439;SDS011;60446;50.752;4.352;2023-02-28T12:38:56;5.07;;;1.45;;
72439;SDS011;60446;50.752;4.352;2023-02-28T12:41:43;4.38;;;1.00;;
72439;SDS011;60446;50.752;4.352;2023-02-28T12:44:30;4.15;;;1.08;;
72439;SDS011;60446;50.752;4.352;2023-02-28T12:47:42;3.88;;;1.50;;
72439;SDS011;60446;50.752;4.352;2023-02-28T12:50:28;6.63;;;0.83;;
72439;SDS011;60446;50.752;4.352;2023-02-28T12:56:17;5.22;;;2.03;;
72439;SDS011;60446;50.752;4.352;2023-02-28T13:08:37;5.38;;;1.52;;
72439;SDS011;60446;50.752;4.352;2023-02-28T13:11:43;3.97;;;1.52;;
72439;SDS011;60446;50.752;4.352;2023-02-28T13:14:27;6.45;;;1.80;;
72439;SDS011;60446;50.752;4.352;2023-02-28T13:19:40;3.60;;;1.13;;
72439;SDS011;60446;50.752;4.352;2023-02-28T13:27:26;5.18;;;1.80;;
72439;SDS011;60446;50.752;4.352;2023-02-28T13:36:42;3.80;;;1.40;;
72439;SDS011;60446;50.752;4.352;2023-02-28T13:45:28;5.18;;;1.60;;
72439;SDS011;60446;50.752;4.352;2023-02-28T13:48:24;5.82;;;1.33;;
72439;SDS011;60446;50.752;4.352;2023-02-28T13:51:35;3.17;;;1.00;;
72439;SDS011;60446;50.752;4.352;2023-02-28T14:00:51;3.08;;;0.98;;
72439;SDS011;60446;50.752;4.352;2023-02-28T14:06:59;4.20;;;1.07;;
72439;SDS011;60446;50.752;4.352;2023-02-28T14:09:38;3.95;;;1.08;;
72439;SDS011;60446;50.752;4.352;2023-02-28T14:18:05;4.32;;;1.52;;
72439;SDS011;60446;50.752;4.352;2023-02-28T14:20:58;4.07;;;1.00;;
72439;SDS011;60446;50.752;4.352;2023-02-28T14:27:03;3.38;;;1.23;;
72439;SDS011;60446;50.752;4.352;2023-02-28T14:32:47;4.43;;;1.25;;
72439;SDS011;60446;50.752;4.352;2023-02-28T14:36:04;4.20;;;0.93;;
72439;SDS011;60446;50.752;4.352;2023-02-28T14:39:07;4.55;;;1.17;;
72439;SDS011;60446;50.752;4.352;2023-02-28T14:41:46;4.75;;;1.13;;
72439;SDS011;60446;50.752;4.352;2023-02-28T14:44:23;4.65;;;1.40;;
72439;SDS011;60446;50.752;4.352;2023-02-28T14:46:53;6.32;;;1.60;;
72439;SDS011;60446;50.752;4.352;2023-02-28T14:49:31;4.70;;;1.23;;
72439;SDS011;60446;50.752;4.352;2023-02-28T14:52:05;6.05;;;1.33;;
72439;SDS011;60446;50.752;4.352;2023-02-28T14:54:39;3.97;;;1.33;;
72439;SDS011;60446;50.752;4.352;2023-02-28T14:57:20;6.32;;;1.17;;
72439;SDS011;60446;50.752;4.352;2023-02-28T15:02:39;4.90;;;1.37;;
72439;SDS011;60446;50.752;4.352;2023-02-28T15:07:47;5.38;;;1.50;;
72439;SDS011;60446;50.752;4.352;2023-02-28T15:10:17;6.93;;;1.63;;
72439;SDS011;60446;50.752;4.352;2023-02-28T15:12:58;5.22;;;1.75;;
72439;SDS011;60446;50.752;4.352;2023-02-28T15:18:28;6.38;;;1.73;;
72439;SDS011;60446;50.752;4.352;2023-02-28T15:21:06;5.00;;;1.50;;
72439;SDS011;60446;50.752;4.352;2023-02-28T15:23:42;5.70;;;1.73;;
72439;SDS011;60446;50.752;4.352;2023-02-28T15:26:14;5.20;;;1.40;;
72439;SDS011;60446;50.752;4.352;2023-02-28T15:28:47;4.57;;;1.30;;
72439;SDS011;60446;50.752;4.352;2023-02-28T15:31:49;4.38;;;1.38;;
72439;SDS011;60446;50.752;4.352;2023-02-28T15:37:26;5.85;;;1.88;;
72439;SDS011;60446;50.752;4.352;2023-02-28T15:42:42;5.70;;;2.10;;
72439;SDS011;60446;50.752;4.352;2023-02-28T15:45:41;5.85;;;1.67;;
72439;SDS011;60446;50.752;4.352;2023-02-28T15:48:34;7.88;;;2.05;;
72439;SDS011;60446;50.752;4.352;2023-02-28T15:51:13;6.35;;;1.48;;
72439;SDS011;60446;50.752;4.352;2023-02-28T15:53:50;9.10;;;1.80;;
72439;SDS011;60446;50.752;4.352;2023-02-28T15:56:49;4.20;;;1.37;;
72439;SDS011;60446;50.752;4.352;2023-02-28T15:59:20;5.13;;;1.20;;
72439;SDS011;60446;50.752;4.352;2023-02-28T16:07:32;4.25;;;1.10;;
72439;SDS011;60446;50.752;4.352;2023-02-28T16:10:03;7.37;;;1.20;;
72439;SDS011;60446;50.752;4.352;2023-02-28T16:12:33;6.30;;;1.95;;
72439;SDS011;60446;50.752;4.352;2023-02-28T16:15:05;7.18;;;1.80;;
72439;SDS011;60446;50.752;4.352;2023-02-28T16:17:50;6.13;;;1.58;;
72439;SDS011;60446;50.752;4.352;2023-02-28T16:20:28;3.35;;;1.02;;
72439;SDS011;60446;50.752;4.352;2023-02-28T16:22:59;5.50;;;1.43;;
72439;SDS011;60446;50.752;4.352;2023-02-28T16:25:33;4.72;;;1.27;;
72439;SDS011;60446;50.752;4.352;2023-02-28T16:28:27;5.95;;;1.75;;
72439;SDS011;60446;50.752;4.352;2023-02-28T16:30:59;5.65;;;1.50;;
72439;SDS011;60446;50.752;4.352;2023-02-28T16:33:31;4.68;;;1.52;;
72439;SDS011;60446;50.752;4.352;2023-02-28T16:35:59;5.27;;;1.57;;
72439;SDS011;60446;50.752;4.352;2023-02-28T16:38:27;6.05;;;1.55;;
72439;SDS011;60446;50.752;4.352;2023-02-28T16:40:55;5.03;;;1.20;;
72439;SDS011;60446;50.752;4.352;2023-02-28T16:43:25;4.97;;;1.50;;
72439;SDS011;60446;50.752;4.352;2023-02-28T16:45:56;5.45;;;1.70;;
72439;SDS011;60446;50.752;4.352;2023-02-28T16:48:27;5.20;;;1.33;;
72439;SDS011;60446;50.752;4.352;2023-02-28T16:50:56;4.85;;;1.10;;
72439;SDS011;60446;50.752;4.352;2023-02-28T16:53:23;5.32;;;1.67;;
72439;SDS011;60446;50.752;4.352;2023-02-28T16:55:58;5.70;;;1.48;;
72439;SDS011;60446;50.752;4.352;2023-02-28T16:58:43;5.05;;;1.95;;
72439;SDS011;60446;50.752;4.352;2023-02-28T17:01:31;6.27;;;1.77;;
72439;SDS011;60446;50.752;4.352;2023-02-28T17:04:03;6.00;;;2.00;;
72439;SDS011;60446;50.752;4.352;2023-02-28T17:06:42;4.00;;;1.27;;
72439;SDS011;60446;50.752;4.352;2023-02-28T17:09:16;4.68;;;1.25;;
72439;SDS011;60446;50.752;4.352;2023-02-28T17:12:05;6.40;;;1.23;;
72439;SDS011;60446;50.752;4.352;2023-02-28T17:14:34;5.77;;;1.50;;
72439;SDS011;60446;50.752;4.352;2023-02-28T17:17:06;6.00;;;1.50;;
72439;SDS011;60446;50.752;4.352;2023-02-28T17:19:39;5.72;;;1.63;;
72439;SDS011;60446;50.752;4.352;2023-02-28T17:22:15;6.15;;;1.40;;
72439;SDS011;60446;50.752;4.352;2023-02-28T17:24:45;5.65;;;1.48;;
72439;SDS011;60446;50.752;4.352;2023-02-28T17:27:25;5.30;;;1.57;;
72439;SDS011;60446;50.752;4.352;2023-02-28T17:29:57;6.35;;;1.55;;
72439;SDS011;60446;50.752;4.352;2023-02-28T17:32:31;6.85;;;1.95;;
72439;SDS011;60446;50.752;4.352;2023-02-28T17:35:17;6.28;;;1.23;;
72439;SDS011;60446;50.752;4.352;2023-02-28T17:37:46;7.60;;;2.08;;
72439;SDS011;60446;50.752;4.352;2023-02-28T17:40:29;5.50;;;1.17;;
72439;SDS011;60446;50.752;4.352;2023-02-28T17:43:11;6.85;;;1.98;;
72439;SDS011;60446;50.752;4.352;2023-02-28T17:45:48;5.90;;;1.35;;
72439;SDS011;60446;50.752;4.352;2023-02-28T17:48:55;8.13;;;1.83;;
72439;SDS011;60446;50.752;4.352;2023-02-28T17:51:45;5.75;;;1.88;;
72439;SDS011;60446;50.752;4.352;2023-02-28T17:54:23;4.43;;;1.67;;
72439;SDS011;60446;50.752;4.352;2023-02-28T17:57:02;7.90;;;2.28;;
72439;SDS011;60446;50.752;4.352;2023-02-28T17:59:32;12.50;;;2.63;;
72439;SDS011;60446;50.752;4.352;2023-02-28T18:02:11;10.52;;;3.60;;
72439;SDS011;60446;50.752;4.352;2023-02-28T18:04:48;7.32;;;2.80;;
72439;SDS011;60446;50.752;4.352;2023-02-28T18:07:30;6.63;;;2.20;;
72439;SDS011;60446;50.752;4.352;2023-02-28T18:10:11;5.85;;;2.05;;
72439;SDS011;60446;50.752;4.352;2023-02-28T18:12:56;8.73;;;2.58;;
72439;SDS011;60446;50.752;4.352;2023-02-28T18:15:35;10.65;;;3.03;;
72439;SDS011;60446;50.752;4.352;2023-02-28T18:18:09;8.20;;;2.88;;
72439;SDS011;60446;50.752;4.352;2023-02-28T18:20:52;9.10;;;2.60;;
72439;SDS011;60446;50.752;4.352;2023-02-28T18:23:42;7.80;;;2.88;;
72439;SDS011;60446;50.752;4.352;2023-02-28T18:26:33;7.38;;;2.55;;
72439;SDS011;60446;50.752;4.352;2023-02-28T18:29:08;6.82;;;2.03;;
72439;SDS011;60446;50.752;4.352;2023-02-28T18:31:58;8.98;;;2.10;;
72439;SDS011;60446;50.752;4.352;2023-02-28T18:34:38;4.87;;;1.40;;
72439;SDS011;60446;50.752;4.352;2023-02-28T18:37:56;7.47;;;2.17;;
72439;SDS011;60446;50.752;4.352;2023-02-28T18:40:37;6.68;;;1.95;;
72439;SDS011;60446;50.752;4.352;2023-02-28T18:43:26;7.13;;;2.00;;
72439;SDS011;60446;50.752;4.352;2023-02-28T18:46:00;5.43;;;1.75;;
72439;SDS011;60446;50.752;4.352;2023-02-28T18:48:58;6.57;;;1.93;;
72439;SDS011;60446;50.752;4.352;2023-02-28T18:51:50;6.57;;;1.88;;
72439;SDS011;60446;50.752;4.352;2023-02-28T18:54:46;5.05;;;1.80;;
72439;SDS011;60446;50.752;4.352;2023-02-28T18:57:25;7.72;;;1.85;;
72439;SDS011;60446;50.752;4.352;2023-02-28T19:00:29;5.80;;;1.67;;
72439;SDS011;60446;50.752;4.352;2023-02-28T19:03:12;8.93;;;2.50;;
72439;SDS011;60446;50.752;4.352;2023-02-28T19:06:24;6.97;;;2.63;;
72439;SDS011;60446;50.752;4.352;2023-02-28T19:09:19;5.95;;;1.70;;
72439;SDS011;60446;50.752;4.352;2023-02-28T19:12:11;6.60;;;2.20;;
72439;SDS011;60446;50.752;4.352;2023-02-28T19:15:02;8.07;;;2.33;;
72439;SDS011;60446;50.752;4.352;2023-02-28T19:17:40;9.30;;;2.50;;
72439;SDS011;60446;50.752;4.352;2023-02-28T19:20:59;6.43;;;2.30;;
72439;SDS011;60446;50.752;4.352;2023-02-28T19:23:48;6.15;;;2.30;;
72439;SDS011;60446;50.752;4.352;2023-02-28T19:26:51;6.22;;;1.90;;
72439;SDS011;60446;50.752;4.352;2023-02-28T19:29:49;12.02;;;4.65;;
72439;SDS011;60446;50.752;4.352;2023-02-28T19:32:40;7.53;;;2.50;;
72439;SDS011;60446;50.752;4.352;2023-02-28T19:35:37;5.32;;;2.05;;
72439;SDS011;60446;50.752;4.352;2023-02-28T19:38:37;5.90;;;2.42;;
72439;SDS011;60446;50.752;4.352;2023-02-28T19:41:44;7.93;;;2.33;;
72439;SDS011;60446;50.752;4.352;2023-02-28T19:44:40;7.25;;;2.42;;
72439;SDS011;60446;50.752;4.352;2023-02-28T19:47:25;6.72;;;2.85;;
72439;SDS011;60446;50.752;4.352;2023-02-28T19:54:13;10.35;;;3.35;;
72439;SDS011;60446;50.752;4.352;2023-02-28T19:57:03;9.80;;;4.57;;
72439;SDS011;60446;50.752;4.352;2023-02-28T19:59:44;10.00;;;2.78;;
72439;SDS011;60446;50.752;4.352;2023-02-28T20:02:40;8.77;;;3.17;;
72439;SDS011;60446;50.752;4.352;2023-02-28T20:05:21;8.52;;;3.47;;
72439;SDS011;60446;50.752;4.352;2023-02-28T20:08:09;12.98;;;3.55;;